createdAt,value
2023-01-22T00:00:10.411Z,-1.82
2023-01-22T00:02:40.349Z,-1.82
2023-01-22T00:05:07.998Z,-1.80
2023-01-22T00:07:35.440Z,-1.78
2023-01-22T00:10:02.270Z,-1.76
2023-01-22T00:12:29.137Z,-1.71
2023-01-22T00:14:55.688Z,-1.70
2023-01-22T00:17:22.273Z,-1.72
2023-01-22T00:19:48.895Z,-1.79
2023-01-22T00:22:15.521Z,-1.75
2023-01-22T00:24:42.166Z,-1.75
2023-01-22T00:27:08.879Z,-1.73
2023-01-22T00:29:35.561Z,-1.76
2023-01-22T00:32:02.566Z,-1.76
2023-01-22T00:34:30.169Z,-1.70
2023-01-22T00:36:57.545Z,-1.67
2023-01-22T00:39:24.150Z,-1.64
2023-01-22T00:41:51.949Z,-1.68
2023-01-22T00:44:18.646Z,-1.68
2023-01-22T00:46:45.545Z,-1.72
2023-01-22T00:49:12.672Z,-1.60
2023-01-22T00:51:39.733Z,-1.70
2023-01-22T00:54:06.918Z,-1.70
2023-01-22T00:56:33.552Z,-1.68
2023-01-22T00:59:00.161Z,-1.69
2023-01-22T01:01:26.865Z,-1.71
2023-01-22T01:03:53.456Z,-1.68
2023-01-22T01:06:22.034Z,-1.66
2023-01-22T01:08:50.080Z,-1.66
2023-01-22T01:11:22.803Z,-1.66
2023-01-22T01:13:50.771Z,-1.67
2023-01-22T01:16:26.710Z,-1.66
2023-01-22T01:18:53.561Z,-1.67
2023-01-22T01:21:20.472Z,-1.66
2023-01-22T01:23:48.459Z,-1.63
2023-01-22T01:26:16.591Z,-1.66
2023-01-22T01:28:45.295Z,-1.62
2023-01-22T01:31:14.094Z,-1.60
2023-01-22T01:33:41.490Z,-1.60
2023-01-22T01:36:12.007Z,-1.64
2023-01-22T01:38:38.616Z,-1.64
2023-01-22T01:41:06.247Z,-1.61
2023-01-22T01:43:34.644Z,-1.61
2023-01-22T01:46:04.333Z,-1.58
2023-01-22T01:48:30.934Z,-1.57
2023-01-22T01:51:08.754Z,-1.52
2023-01-22T01:53:36.385Z,-1.54
2023-01-22T01:56:07.704Z,-1.55
2023-01-22T01:58:38.023Z,-1.53
2023-01-22T02:01:15.228Z,-1.53
2023-01-22T02:03:42.527Z,-1.52
2023-01-22T02:06:14.739Z,-1.49
2023-01-22T02:08:44.560Z,-1.49
2023-01-22T02:11:11.403Z,-1.44
2023-01-22T02:13:41.147Z,-1.48
2023-01-22T02:16:10.228Z,-1.48
2023-01-22T02:18:36.931Z,-1.50
2023-01-22T02:21:04.325Z,-1.55
2023-01-22T02:23:33.393Z,-1.50
2023-01-22T02:26:00.789Z,-1.46
2023-01-22T02:28:27.384Z,-1.49
2023-01-22T02:30:55.767Z,-1.46
2023-01-22T02:33:22.435Z,-1.53
2023-01-22T02:35:49.054Z,-1.44
2023-01-22T02:38:15.611Z,-1.47
2023-01-22T02:40:49.281Z,-1.46
2023-01-22T02:43:19.075Z,-1.47
2023-01-22T02:45:45.882Z,-1.44
2023-01-22T02:48:12.980Z,-1.38
2023-01-22T02:50:39.771Z,-1.43
2023-01-22T02:53:06.438Z,-1.44
2023-01-22T02:55:33.154Z,-1.39
2023-01-22T02:57:59.713Z,-1.38
2023-01-22T03:00:26.338Z,-1.36
2023-01-22T03:02:52.912Z,-1.40
2023-01-22T03:05:19.550Z,-1.39
2023-01-22T03:07:46.179Z,-1.40
2023-01-22T03:10:17.493Z,-1.36
2023-01-22T03:13:05.235Z,-1.35
2023-01-22T03:15:51.209Z,-1.40
2023-01-22T03:18:37.275Z,-1.43
2023-01-22T03:21:13.060Z,-1.40
2023-01-22T03:23:40.141Z,-1.34
2023-01-22T03:26:07.575Z,-1.34
2023-01-22T03:28:34.733Z,-1.33
2023-01-22T03:31:01.373Z,-1.32
2023-01-22T03:33:28.867Z,-1.36
2023-01-22T03:36:04.097Z,-1.36
2023-01-22T03:38:31.529Z,-1.34
2023-01-22T03:41:06.797Z,-1.37
2023-01-22T03:43:34.897Z,-1.32
2023-01-22T03:46:13.175Z,-1.37
2023-01-22T03:48:43.935Z,-1.35
2023-01-22T03:51:14.980Z,-1.34
2023-01-22T03:53:43.419Z,-1.32
2023-01-22T03:56:15.853Z,-1.31
2023-01-22T03:58:43.266Z,-1.34
2023-01-22T04:01:13.634Z,-1.37
2023-01-22T04:03:40.735Z,-1.30
2023-01-22T04:06:09.218Z,-1.32
2023-01-22T04:08:37.868Z,-1.40
2023-01-22T04:11:05.144Z,-1.35
2023-01-22T04:13:34.261Z,-1.40
2023-01-22T04:16:02.333Z,-1.37
2023-01-22T04:19:06.974Z,-1.37
2023-01-22T04:21:33.625Z,-1.36
2023-01-22T04:24:01.626Z,-1.38
2023-01-22T04:26:28.302Z,-1.34
2023-01-22T04:28:57.376Z,-1.32
2023-01-22T04:31:25.060Z,-1.33
2023-01-22T04:34:00.136Z,-1.33
2023-01-22T04:36:29.883Z,-1.43
2023-01-22T04:38:56.489Z,-1.37
2023-01-22T04:41:23.117Z,-1.35
2023-01-22T04:43:49.687Z,-1.35
2023-01-22T04:46:16.856Z,-1.36
2023-01-22T04:48:43.699Z,-1.35
2023-01-22T04:51:10.473Z,-1.36
2023-01-22T04:53:38.311Z,-1.35
2023-01-22T04:56:06.818Z,-1.36
2023-01-22T04:58:34.010Z,-1.35
2023-01-22T05:01:00.741Z,-1.37
2023-01-22T05:03:27.346Z,-1.36
2023-01-22T05:05:54.122Z,-1.35
2023-01-22T05:08:20.803Z,-1.35
2023-01-22T05:10:47.800Z,-1.33
2023-01-22T05:13:23.366Z,-1.37
2023-01-22T05:15:49.967Z,-1.34
2023-01-22T05:18:17.242Z,-1.34
2023-01-22T05:20:49.885Z,-1.34
2023-01-22T05:23:17.877Z,-1.33
2023-01-22T05:25:49.290Z,-1.33
2023-01-22T05:28:19.726Z,-1.36
2023-01-22T05:31:13.250Z,-1.36
2023-01-22T05:33:48.850Z,-1.38
2023-01-22T05:36:15.947Z,-1.35
2023-01-22T05:38:43.119Z,-1.38
2023-01-22T05:41:10.585Z,-1.38
2023-01-22T05:43:39.203Z,-1.44
2023-01-22T05:46:08.888Z,-1.38
2023-01-22T05:48:44.347Z,-1.37
2023-01-22T05:51:14.308Z,-1.25
2023-01-22T05:53:41.239Z,-1.37
2023-01-22T05:56:08.058Z,-1.37
2023-01-22T05:58:37.866Z,-1.41
2023-01-22T06:01:05.065Z,-1.38
2023-01-22T06:03:38.688Z,-1.33
2023-01-22T06:06:10.402Z,-1.35
2023-01-22T06:08:38.459Z,-1.37
2023-01-22T06:11:13.959Z,-1.35
2023-01-22T06:13:44.537Z,-1.36
2023-01-22T06:16:16.857Z,-1.39
2023-01-22T06:18:55.529Z,-1.37
2023-01-22T06:21:25.222Z,-1.41
2023-01-22T06:23:54.920Z,-1.34
2023-01-22T06:26:21.651Z,-1.32
2023-01-22T06:28:48.224Z,-1.35
2023-01-22T06:31:15.015Z,-1.36
2023-01-22T06:33:41.799Z,-1.34
2023-01-22T06:36:09.112Z,-1.38
2023-01-22T06:38:37.173Z,-1.42
2023-01-22T06:41:05.505Z,-1.47
2023-01-22T06:43:32.961Z,-1.48
2023-01-22T06:45:59.849Z,-1.42
2023-01-22T06:48:47.520Z,-1.37
2023-01-22T06:51:15.190Z,-1.40
2023-01-22T06:53:42.276Z,-1.39
2023-01-22T06:56:09.093Z,-1.38
2023-01-22T06:58:35.815Z,-1.38
2023-01-22T07:01:04.280Z,-1.39
2023-01-22T07:03:31.082Z,-1.46
2023-01-22T07:05:59.108Z,-1.40
2023-01-22T07:08:26.291Z,-1.38
2023-01-22T07:10:52.969Z,-1.35
2023-01-22T07:13:19.912Z,-1.40
2023-01-22T07:15:46.685Z,-1.40
2023-01-22T07:18:14.613Z,-1.35
2023-01-22T07:20:42.344Z,-1.40
2023-01-22T07:23:09.868Z,-1.36
2023-01-22T07:25:36.435Z,-1.34
2023-01-22T07:28:05.015Z,-1.44
2023-01-22T07:30:31.988Z,-1.34
2023-01-22T07:33:03.027Z,-1.28
2023-01-22T07:35:30.214Z,-1.22
2023-01-22T07:37:58.902Z,-1.18
2023-01-22T07:40:26.100Z,-1.24
2023-01-22T07:42:53.351Z,-1.21
2023-01-22T07:45:22.243Z,-1.23
2023-01-22T07:47:59.187Z,-1.17
2023-01-22T07:50:30.956Z,-1.10
2023-01-22T07:53:00.595Z,-1.14
2023-01-22T07:55:27.391Z,-1.15
2023-01-22T07:58:02.023Z,-1.25
2023-01-22T08:00:28.860Z,-1.26
2023-01-22T08:02:55.528Z,-1.21
2023-01-22T08:05:22.293Z,-1.27
2023-01-22T08:07:49.073Z,-1.24
2023-01-22T08:10:17.191Z,-1.23
2023-01-22T08:12:46.304Z,-1.18
2023-01-22T08:15:13.706Z,-1.24
2023-01-22T08:17:40.522Z,-1.28
2023-01-22T08:20:08.354Z,-1.23
2023-01-22T08:22:34.972Z,-1.24
2023-01-22T08:25:01.565Z,-1.24
2023-01-22T08:27:28.126Z,-1.16
2023-01-22T08:29:55.266Z,-1.18
2023-01-22T08:32:22.107Z,-1.17
2023-01-22T08:34:48.730Z,-1.14
2023-01-22T08:37:15.305Z,-1.06
2023-01-22T08:39:41.864Z,-1.11
2023-01-22T08:42:08.431Z,-1.06
2023-01-22T08:44:34.973Z,-1.07
2023-01-22T08:47:01.581Z,-1.08
2023-01-22T08:49:30.527Z,-1.00
2023-01-22T08:51:57.211Z,-0.97
2023-01-22T08:54:23.845Z,-0.99
2023-01-22T08:56:50.436Z,-0.99
2023-01-22T08:59:17.022Z,-0.95
2023-01-22T09:01:43.593Z,-0.89
2023-01-22T09:04:11.098Z,-0.95
2023-01-22T09:06:39.133Z,-0.81
2023-01-22T09:09:06.842Z,-0.86
2023-01-22T09:11:34.295Z,-0.89
2023-01-22T09:14:00.892Z,-0.76
2023-01-22T09:16:27.918Z,-0.86
2023-01-22T09:18:54.758Z,-0.73
2023-01-22T09:21:21.397Z,-0.68
2023-01-22T09:23:48.028Z,-0.70
2023-01-22T09:26:14.691Z,-0.78
2023-01-22T09:28:41.377Z,-0.67
2023-01-22T09:31:11.927Z,-0.66
2023-01-22T09:33:38.938Z,-0.60
2023-01-22T09:36:11.262Z,-0.58
2023-01-22T09:38:38.432Z,-0.56
2023-01-22T09:41:12.541Z,-0.48
2023-01-22T09:43:53.289Z,-0.44
2023-01-22T09:46:43.539Z,-0.43
2023-01-22T09:49:21.831Z,-0.49
2023-01-22T09:52:00.117Z,-0.44
2023-01-22T09:54:28.674Z,-0.34
2023-01-22T09:57:01.925Z,-0.20
2023-01-22T09:59:38.681Z,-0.19
2023-01-22T10:02:20.646Z,-0.08
2023-01-22T10:04:50.236Z,-0.12
2023-01-22T10:07:36.974Z,-0.14
2023-01-22T10:10:22.847Z,0.09
2023-01-22T10:13:01.859Z,0.12
2023-01-22T10:15:29.322Z,0.26
2023-01-22T10:17:57.756Z,0.25
2023-01-22T10:20:24.866Z,0.04
2023-01-22T10:22:55.919Z,-0.10
2023-01-22T10:25:22.887Z,-0.06
2023-01-22T10:27:59.695Z,0.24
2023-01-22T10:30:27.440Z,0.53
2023-01-22T10:33:06.948Z,0.44
2023-01-22T10:35:44.020Z,0.55
2023-01-22T10:38:28.597Z,0.35
2023-01-22T10:40:58.010Z,0.56
2023-01-22T10:43:32.356Z,0.87
2023-01-22T10:46:16.365Z,0.73
2023-01-22T10:48:43.271Z,0.55
2023-01-22T10:51:15.900Z,0.71
2023-01-22T10:53:52.968Z,0.54
2023-01-22T10:56:45.863Z,0.74
2023-01-22T10:59:26.479Z,0.95
2023-01-22T11:02:13.549Z,1.09
2023-01-22T11:04:40.234Z,0.94
2023-01-22T11:07:15.776Z,0.80
2023-01-22T11:10:00.961Z,0.73
2023-01-22T11:12:32.852Z,0.44
2023-01-22T11:15:12.989Z,0.60
2023-01-22T11:17:47.163Z,0.62
2023-01-22T11:20:32.706Z,0.82
2023-01-22T11:23:22.637Z,0.99
2023-01-22T11:26:04.389Z,1.19
2023-01-22T11:28:41.793Z,1.02
2023-01-22T11:31:39.551Z,0.82
2023-01-22T11:34:23.303Z,0.67
2023-01-22T11:37:14.172Z,0.62
2023-01-22T11:39:43.658Z,0.56
2023-01-22T11:42:22.770Z,0.71
2023-01-22T11:45:09.987Z,0.81
2023-01-22T11:47:59.812Z,0.96
2023-01-22T11:50:48.666Z,0.94
2023-01-22T11:53:26.376Z,0.68
2023-01-22T11:56:00.471Z,0.57
2023-01-22T11:58:34.032Z,0.68
2023-01-22T12:01:21.700Z,0.79
2023-01-22T12:03:59.580Z,0.69
2023-01-22T12:06:35.046Z,0.68
2023-01-22T12:09:27.698Z,0.68
2023-01-22T12:12:03.303Z,0.83
2023-01-22T12:14:52.893Z,0.88
2023-01-22T12:17:36.895Z,0.79
2023-01-22T12:20:22.313Z,0.72
2023-01-22T12:23:21.373Z,0.72
2023-01-22T12:25:53.995Z,0.71
2023-01-22T12:28:32.147Z,0.80
2023-01-22T12:31:06.117Z,0.75
2023-01-22T12:33:39.127Z,0.74
2023-01-22T12:36:09.946Z,0.62
2023-01-22T12:38:40.107Z,0.69
2023-01-22T12:41:25.359Z,0.73
2023-01-22T12:44:00.173Z,0.81
2023-01-22T12:46:36.377Z,0.90
2023-01-22T12:49:04.993Z,0.93
2023-01-22T12:51:34.274Z,0.88
2023-01-22T12:54:27.578Z,0.85
2023-01-22T12:57:17.071Z,0.96
2023-01-22T12:59:48.504Z,0.81
2023-01-22T13:02:41.468Z,0.91
2023-01-22T13:05:17.599Z,0.94
2023-01-22T13:07:44.775Z,0.82
2023-01-22T13:10:20.768Z,0.82
2023-01-22T13:12:50.600Z,0.83
2023-01-22T13:15:21.696Z,0.85
2023-01-22T13:18:07.924Z,0.85
2023-01-22T13:20:45.989Z,0.77
2023-01-22T13:23:14.938Z,0.70
2023-01-22T13:25:42.973Z,0.73
2023-01-22T13:28:19.194Z,0.66
2023-01-22T13:30:56.436Z,0.62
2023-01-22T13:33:23.414Z,0.69
2023-01-22T13:35:50.013Z,0.70
2023-01-22T13:38:32.729Z,0.68
2023-01-22T13:41:13.131Z,0.69
2023-01-22T13:43:41.685Z,0.67
2023-01-22T13:46:13.705Z,0.63
2023-01-22T13:48:40.693Z,0.61
2023-01-22T13:51:17.143Z,0.57
2023-01-22T13:53:48.859Z,0.53
2023-01-22T13:56:19.491Z,0.58
2023-01-22T13:58:48.648Z,0.56
2023-01-22T14:01:33.327Z,0.53
2023-01-22T14:04:02.016Z,0.49
2023-01-22T14:06:29.090Z,0.48
2023-01-22T14:08:57.475Z,0.50
2023-01-22T14:11:24.224Z,0.45
2023-01-22T14:13:53.037Z,0.41
2023-01-22T14:16:19.738Z,0.31
2023-01-22T14:18:47.563Z,0.18
2023-01-22T14:21:14.498Z,0.26
2023-01-22T14:23:42.713Z,0.19
2023-01-22T14:26:09.845Z,0.24
2023-01-22T14:28:37.061Z,0.25
2023-01-22T14:31:05.062Z,0.24
2023-01-22T14:33:33.761Z,0.18
2023-01-22T14:36:00.850Z,0.18
2023-01-22T14:38:28.479Z,0.17
2023-01-22T14:40:55.322Z,0.08
2023-01-22T14:43:22.139Z,0.13
2023-01-22T14:45:48.955Z,0.12
2023-01-22T14:48:18.983Z,0.05
2023-01-22T14:50:45.627Z,0.11
2023-01-22T14:53:13.606Z,0.06
2023-01-22T14:55:42.541Z,0.10
2023-01-22T14:58:09.984Z,0.05
2023-01-22T15:00:37.084Z,0.04
2023-01-22T15:03:03.964Z,0.01
2023-01-22T15:05:30.761Z,0.01
2023-01-22T15:07:58.754Z,-0.04
2023-01-22T15:10:25.320Z,-0.08
2023-01-22T15:12:53.008Z,-0.01
2023-01-22T15:15:26.385Z,-0.02
2023-01-22T15:17:54.434Z,-0.07
2023-01-22T15:20:21.827Z,-0.08
2023-01-22T15:22:49.865Z,-0.12
2023-01-22T15:25:17.165Z,-0.12
2023-01-22T15:27:44.620Z,-0.14
2023-01-22T15:30:13.065Z,-0.11
2023-01-22T15:32:40.084Z,-0.15
2023-01-22T15:35:06.844Z,-0.21
2023-01-22T15:37:33.472Z,-0.22
2023-01-22T15:40:00.048Z,-0.20
2023-01-22T15:42:26.673Z,-0.15
2023-01-22T15:44:53.255Z,-0.14
2023-01-22T15:47:19.836Z,-0.16
2023-01-22T15:49:46.605Z,-0.14
2023-01-22T15:52:13.180Z,-0.14
2023-01-22T15:54:39.736Z,-0.18
2023-01-22T15:57:06.285Z,-0.15
2023-01-22T15:59:33.224Z,-0.18
2023-01-22T16:01:59.971Z,-0.22
2023-01-22T16:04:26.569Z,-0.20
2023-01-22T16:06:53.152Z,-0.23
2023-01-22T16:09:19.741Z,-0.25
2023-01-22T16:11:46.447Z,-0.19
2023-01-22T16:14:13.047Z,-0.26
2023-01-22T16:16:39.623Z,-0.24
2023-01-22T16:19:08.314Z,-0.22
2023-01-22T16:21:35.429Z,-0.22
2023-01-22T16:24:02.924Z,-0.23
2023-01-22T16:26:32.240Z,-0.22
2023-01-22T16:29:00.355Z,-0.21
2023-01-22T16:31:30.757Z,-0.20
2023-01-22T16:34:06.550Z,-0.22
2023-01-22T16:36:33.426Z,-0.18
2023-01-22T16:39:00.607Z,-0.21
2023-01-22T16:41:28.542Z,-0.25
2023-01-22T16:43:57.327Z,-0.28
2023-01-22T16:46:26.753Z,-0.20
2023-01-22T16:49:01.209Z,-0.24
2023-01-22T16:51:34.004Z,-0.23
2023-01-22T16:54:00.625Z,-0.22
2023-01-22T16:56:27.260Z,-0.29
2023-01-22T16:58:53.846Z,-0.23
2023-01-22T17:01:21.005Z,-0.24
2023-01-22T17:03:47.608Z,-0.21
2023-01-22T17:06:23.088Z,-0.17
2023-01-22T17:08:51.117Z,-0.16
2023-01-22T17:11:18.069Z,-0.15
2023-01-22T17:13:45.137Z,-0.17
2023-01-22T17:16:12.038Z,-0.17
2023-01-22T17:18:38.835Z,-0.24
2023-01-22T17:21:07.729Z,-0.21
2023-01-22T17:23:34.551Z,-0.19
2023-01-22T17:26:05.769Z,-0.19
2023-01-22T17:28:35.372Z,-0.15
2023-01-22T17:31:05.453Z,-0.16
2023-01-22T17:33:32.131Z,-0.19
2023-01-22T17:35:59.988Z,-0.25
2023-01-22T17:38:29.089Z,-0.22
2023-01-22T17:40:56.982Z,-0.22
2023-01-22T17:43:24.250Z,-0.18
2023-01-22T17:45:50.946Z,-0.20
2023-01-22T17:48:17.521Z,-0.14
2023-01-22T17:50:44.113Z,-0.18
2023-01-22T17:53:10.666Z,-0.17
2023-01-22T17:55:38.008Z,-0.18
2023-01-22T17:58:04.596Z,-0.14
2023-01-22T18:00:31.669Z,-0.15
2023-01-22T18:02:58.254Z,-0.19
2023-01-22T18:05:26.658Z,-0.17
2023-01-22T18:07:53.207Z,-0.17
2023-01-22T18:10:20.916Z,-0.18
2023-01-22T18:12:49.107Z,-0.17
2023-01-22T18:15:15.791Z,-0.19
2023-01-22T18:17:42.342Z,-0.16
2023-01-22T18:20:09.494Z,-0.19
2023-01-22T18:22:36.040Z,-0.13
2023-01-22T18:25:02.918Z,-0.14
2023-01-22T18:27:29.538Z,-0.15
2023-01-22T18:29:56.143Z,-0.18
2023-01-22T18:32:24.280Z,-0.14
2023-01-22T18:34:50.923Z,-0.15
2023-01-22T18:37:17.463Z,-0.15
2023-01-22T18:39:44.113Z,-0.14
2023-01-22T18:42:10.679Z,-0.15
2023-01-22T18:44:38.848Z,-0.15
2023-01-22T18:47:10.936Z,-0.12
2023-01-22T18:49:37.533Z,-0.15
2023-01-22T18:52:04.189Z,-0.11
2023-01-22T18:54:30.879Z,-0.11
2023-01-22T18:56:57.632Z,-0.09
2023-01-22T18:59:24.482Z,-0.10
2023-01-22T19:01:51.891Z,-0.13
2023-01-22T19:04:22.121Z,-0.07
2023-01-22T19:06:54.093Z,-0.12
2023-01-22T19:09:21.068Z,-0.17
2023-01-22T19:11:49.432Z,-0.10
2023-01-22T19:14:17.945Z,-0.10
2023-01-22T19:16:45.011Z,-0.06
2023-01-22T19:19:13.548Z,-0.04
2023-01-22T19:21:46.706Z,-0.04
2023-01-22T19:24:15.419Z,-0.09
2023-01-22T19:26:44.772Z,-0.05
2023-01-22T19:29:17.129Z,-0.03
2023-01-22T19:31:46.431Z,-0.03
2023-01-22T19:34:21.032Z,-0.05
2023-01-22T19:36:47.684Z,-0.05
2023-01-22T19:39:14.296Z,-0.02
2023-01-22T19:41:41.812Z,-0.08
2023-01-22T19:44:09.765Z,-0.09
2023-01-22T19:46:40.100Z,-0.07
2023-01-22T19:49:08.005Z,-0.03
2023-01-22T19:51:34.894Z,0.00
2023-01-22T19:54:02.440Z,0.04
2023-01-22T19:56:32.239Z,0.01
2023-01-22T19:59:07.577Z,-0.03
2023-01-22T20:01:35.420Z,-0.07
2023-01-22T20:04:03.948Z,-0.08
2023-01-22T20:06:30.859Z,-0.04
2023-01-22T20:08:57.633Z,-0.09
2023-01-22T20:11:25.436Z,-0.04
2023-01-22T20:13:52.754Z,-0.04
2023-01-22T20:16:25.728Z,-0.07
2023-01-22T20:18:54.441Z,-0.03
2023-01-22T20:21:22.906Z,-0.02
2023-01-22T20:23:50.688Z,0.02
2023-01-22T20:26:19.885Z,0.04
2023-01-22T20:28:48.170Z,0.04
2023-01-22T20:31:20.215Z,-0.05
2023-01-22T20:33:47.992Z,-0.03
2023-01-22T20:36:17.703Z,-0.03
2023-01-22T20:38:49.231Z,-0.02
2023-01-22T20:41:18.667Z,-0.05
2023-01-22T20:43:46.552Z,-0.03
2023-01-22T20:46:23.040Z,-0.05
2023-01-22T20:48:52.179Z,-0.02
2023-01-22T20:51:22.444Z,0.03
2023-01-22T20:53:50.377Z,0.08
2023-01-22T20:56:27.372Z,0.05
2023-01-22T20:59:01.904Z,0.03
2023-01-22T21:01:29.910Z,0.01
2023-01-22T21:03:58.908Z,-0.02
2023-01-22T21:06:29.818Z,-0.02
2023-01-22T21:08:58.396Z,-0.05
2023-01-22T21:11:26.732Z,-0.05
2023-01-22T21:13:53.386Z,-0.06
2023-01-22T21:16:23.286Z,-0.03
2023-01-22T21:18:50.096Z,-0.04
2023-01-22T21:21:19.382Z,-0.03
2023-01-22T21:23:51.419Z,-0.06
2023-01-22T21:26:25.437Z,-0.05
2023-01-22T21:28:58.005Z,0.02
2023-01-22T21:31:25.915Z,0.03
2023-01-22T21:34:02.594Z,0.03
2023-01-22T21:36:30.552Z,-0.02
2023-01-22T21:38:57.578Z,0.03
2023-01-22T21:41:24.426Z,0.00
2023-01-22T21:44:09.467Z,-0.04
2023-01-22T21:46:40.291Z,-0.05
2023-01-22T21:49:18.144Z,0.00
2023-01-22T21:51:56.655Z,0.02
2023-01-22T21:54:27.471Z,0.04
2023-01-22T21:56:55.300Z,0.04
2023-01-22T21:59:22.526Z,0.05
2023-01-22T22:01:54.371Z,0.00
2023-01-22T22:04:23.715Z,0.02
2023-01-22T22:06:50.791Z,0.02
2023-01-22T22:09:22.262Z,0.05
2023-01-22T22:11:49.004Z,0.03
2023-01-22T22:14:20.056Z,0.02
2023-01-22T22:16:47.584Z,0.02
2023-01-22T22:19:15.374Z,0.06
2023-01-22T22:21:42.618Z,0.10
2023-01-22T22:24:10.708Z,0.08
2023-01-22T22:26:38.376Z,0.08
2023-01-22T22:29:06.809Z,0.07
2023-01-22T22:31:33.963Z,-0.04
2023-01-22T22:34:00.693Z,-0.03
2023-01-22T22:36:29.490Z,0.00
2023-01-22T22:38:56.891Z,0.00
2023-01-22T22:41:29.589Z,0.02
2023-01-22T22:43:56.896Z,0.06
2023-01-22T22:46:35.579Z,0.07
2023-01-22T22:49:03.684Z,0.01
2023-01-22T22:51:36.489Z,0.03
2023-01-22T22:54:05.852Z,0.01
2023-01-22T22:56:32.477Z,0.04
2023-01-22T22:59:00.981Z,0.03
2023-01-22T23:01:28.589Z,-0.04
2023-01-22T23:03:55.397Z,-0.04
2023-01-22T23:06:28.147Z,-0.03
2023-01-22T23:09:09.169Z,0.02
2023-01-22T23:11:36.483Z,0.01
2023-01-22T23:14:03.778Z,0.03
2023-01-22T23:16:32.831Z,0.04
2023-01-22T23:19:02.108Z,0.07
2023-01-22T23:21:29.696Z,0.02
2023-01-22T23:23:56.867Z,0.01
2023-01-22T23:26:28.188Z,0.03
2023-01-22T23:28:57.905Z,0.02
2023-01-22T23:31:26.321Z,0.04
2023-01-22T23:33:55.313Z,-0.02
2023-01-22T23:36:22.487Z,0.02
2023-01-22T23:38:49.937Z,-0.02
2023-01-22T23:41:17.851Z,-0.06
2023-01-22T23:43:44.693Z,-0.02
2023-01-22T23:46:23.178Z,-0.09
2023-01-22T23:48:50.694Z,-0.10
2023-01-22T23:51:18.376Z,-0.09
2023-01-22T23:53:47.689Z,-0.12
2023-01-22T23:56:15.689Z,-0.10
2023-01-22T23:58:42.582Z,-0.10
